Terminal Aerodrome Forecast
Issued by NWS

Home | Current Version | Previous Version | Text Only | Print | Product List | Glossary Off
Versions: 1 2 3 4 5 6 7 8 9 10 11 12 13 14 15 16 17 18 19 20 21 22 23

000
FTUS45 KGGW 251131
TAFOLF
TAF
KOLF 251131Z 2512/2612 07010KT P6SM SCT150
     FM251500 VRB05KT P6SM BKN120
     FM252000 28008KT P6SM SCT150
     FM260200 VRB05KT P6SM SCT200=

USA.gov is the U.S. government's official web portal to all federal, state and local government web resources and services.